Time;durP1;ratioP1;P1;durP2;ratioP2;P2;SDS_P1;SDS_P2;PMS_P1;PMS_P2;Temp;Humidity;BMP_temperature;BMP_pressure;BME280_temperature;BME280_humidity;BME280_pressure;Samples;Min_cycle;Max_cycle;Signal;HPM_P1;HPM_P2
2020/12/25 00:02:20;;;;;;;8.97;8.00;;;;;;;2.97;84.93;100396.25;5119100;28;20501;-66
2020/12/25 00:04:47;;;;;;;10.43;7.20;;;;;;;2.94;84.81;100398.22;5120501;28;20461;-66
2020/12/25 00:07:13;;;;;;;8.10;7.00;;;;;;;2.86;84.21;100392.53;5120106;28;20458;-66
2020/12/25 00:09:39;;;;;;;7.37;6.40;;;;;;;2.75;84.21;100396.63;5123374;28;20592;-66
2020/12/25 00:12:07;;;;;;;9.47;7.00;;;;;;;2.67;84.89;100395.34;5123874;28;20469;-66
2020/12/25 00:14:33;;;;;;;8.03;6.60;;;;;;;2.77;84.76;100399.19;5124446;27;20461;-68
2020/12/25 00:17:00;;;;;;;9.07;6.40;;;;;;;2.72;84.38;100403.88;5124244;28;20482;-67
2020/12/25 00:19:26;;;;;;;8.47;6.63;;;;;;;2.67;85.14;100405.91;5126395;28;20475;-68
2020/12/25 00:21:52;;;;;;;9.30;6.97;;;;;;;2.68;85.08;100404.97;5124318;28;20482;-67
2020/12/25 00:24:18;;;;;;;11.30;7.03;;;;;;;2.66;84.78;100410.34;5124214;28;21162;-67
2020/12/25 00:26:45;;;;;;;8.90;6.90;;;;;;;2.67;84.87;100409.38;5124712;28;20470;-68
2020/12/25 00:29:12;;;;;;;8.80;6.50;;;;;;;2.67;84.73;100404.13;5125021;28;20470;-68
2020/12/25 00:31:38;;;;;;;10.13;7.37;;;;;;;2.55;84.44;100412.72;5122466;28;20482;-68
2020/12/25 00:34:06;;;;;;;10.80;6.60;;;;;;;2.48;84.72;100421.91;5123263;28;20483;-68
2020/12/25 00:36:33;;;;;;;8.20;6.27;;;;;;;2.48;84.42;100424.56;5122903;28;20474;-68
2020/12/25 00:39:01;;;;;;;8.60;7.30;;;;;;;2.55;84.10;100429.44;5124426;28;20870;-68
2020/12/25 00:41:27;;;;;;;9.97;6.77;;;;;;;2.55;83.22;100431.19;5121346;28;20470;-67
2020/12/25 00:43:54;;;;;;;7.23;6.50;;;;;;;2.53;83.52;100433.06;5125755;28;20438;-68
2020/12/25 00:46:21;;;;;;;8.70;6.50;;;;;;;2.53;83.35;100436.56;5123960;28;20497;-68
2020/12/25 00:48:48;;;;;;;7.67;6.20;;;;;;;2.45;82.73;100426.44;5125806;28;20473;-67
2020/12/25 00:51:15;;;;;;;10.00;6.40;;;;;;;2.38;83.58;100433.00;5124472;28;20505;-67
2020/12/25 00:53:41;;;;;;;8.33;6.50;;;;;;;2.40;83.40;100436.38;5125232;28;21077;-68
2020/12/25 00:56:09;;;;;;;10.10;6.90;;;;;;;2.33;83.31;100436.81;5124899;28;20467;-69
2020/12/25 00:58:35;;;;;;;8.57;6.73;;;;;;;2.29;83.14;100437.91;5125547;28;20960;-67
2020/12/25 01:01:01;;;;;;;8.10;6.10;;;;;;;2.31;84.00;100442.19;5123792;28;20466;-67
2020/12/25 01:03:28;;;;;;;11.87;5.90;;;;;;;2.40;84.05;100446.09;5126779;28;20450;-67
2020/12/25 01:05:55;;;;;;;9.83;6.53;;;;;;;2.42;83.98;100447.72;5124496;28;20462;-67
2020/12/25 01:08:21;;;;;;;12.23;6.30;;;;;;;2.37;83.36;100455.03;5126656;28;20446;-67
2020/12/25 01:10:48;;;;;;;7.03;5.37;;;;;;;2.37;83.51;100448.91;5124546;28;20473;-67
2020/12/25 01:13:14;;;;;;;11.57;5.80;;;;;;;2.19;83.38;100448.97;5126225;28;20457;-67
2020/12/25 01:15:40;;;;;;;12.10;5.97;;;;;;;2.13;83.18;100461.63;5124506;28;20469;-67
2020/12/25 01:18:07;;;;;;;8.77;5.30;;;;;;;2.06;83.82;100471.63;5125746;28;20526;-67
2020/12/25 01:20:35;;;;;;;6.37;5.30;;;;;;;1.99;84.77;100475.53;5124264;28;20470;-67
2020/12/25 01:23:01;;;;;;;7.17;5.60;;;;;;;2.03;84.82;100474.41;5126569;28;20811;-67
2020/12/25 01:25:27;;;;;;;9.37;6.13;;;;;;;2.01;84.46;100486.84;5124131;28;20523;-67
2020/12/25 01:27:53;;;;;;;7.70;6.13;;;;;;;2.00;84.55;100482.53;5126345;28;20439;-67
2020/12/25 01:30:19;;;;;;;6.60;5.90;;;;;;;2.05;84.75;100483.13;5115330;28;20427;-67
2020/12/25 01:32:46;;;;;;;8.07;7.07;;;;;;;1.93;85.10;100481.97;5106811;28;20442;-67
2020/12/25 01:35:12;;;;;;;11.67;8.17;;;;;;;2.00;85.12;100479.88;5119483;28;20502;-67
2020/12/25 01:37:39;;;;;;;7.83;7.03;;;;;;;1.91;85.27;100490.88;5125968;28;20430;-67
2020/12/25 01:40:05;;;;;;;11.20;6.40;;;;;;;1.93;85.27;100492.53;5124741;27;20446;-68
2020/12/25 01:42:34;;;;;;;9.73;6.17;;;;;;;1.85;85.27;100495.53;5125932;28;21728;-68
2020/12/25 01:45:00;;;;;;;10.93;8.03;;;;;;;1.88;85.33;100492.75;5125675;28;20446;-67
2020/12/25 01:47:26;;;;;;;11.13;7.73;;;;;;;1.81;85.64;100495.81;5124758;28;20481;-67
2020/12/25 01:49:53;;;;;;;10.37;7.93;;;;;;;1.83;84.85;100492.13;5126207;28;20438;-67
2020/12/25 01:52:19;;;;;;;10.17;7.20;;;;;;;1.83;85.20;100497.41;5124491;28;20482;-67
2020/12/25 01:54:47;;;;;;;9.87;7.87;;;;;;;1.86;85.22;100496.41;5125033;28;20466;-68
2020/12/25 01:57:14;;;;;;;17.03;7.33;;;;;;;1.75;85.05;100504.00;5124166;28;20840;-68
2020/12/25 01:59:41;;;;;;;9.70;8.70;;;;;;;1.73;85.57;100514.63;5125238;28;20501;-67
2020/12/25 02:02:08;;;;;;;11.50;8.43;;;;;;;1.62;85.62;100506.41;5124599;28;20498;-67
2020/12/25 02:04:34;;;;;;;13.20;9.03;;;;;;;1.59;85.41;100506.56;5125683;28;20493;-67
2020/12/25 02:07:00;;;;;;;12.70;9.03;;;;;;;1.55;85.95;100511.16;5123585;28;20504;-67
2020/12/25 02:09:27;;;;;;;9.70;7.83;;;;;;;1.59;85.68;100519.75;5123723;28;20477;-67
2020/12/25 02:11:54;;;;;;;12.50;9.73;;;;;;;1.54;86.43;100527.88;5124157;28;20497;-68
2020/12/25 02:14:20;;;;;;;15.33;9.90;;;;;;;1.54;85.90;100521.75;5124289;28;20445;-68
2020/12/25 02:16:46;;;;;;;10.80;9.10;;;;;;;1.62;85.86;100538.03;5123827;28;20501;-67
2020/12/25 02:19:14;;;;;;;12.97;9.33;;;;;;;1.57;85.92;100532.16;5124680;28;20450;-67
2020/12/25 02:21:41;;;;;;;16.80;8.87;;;;;;;1.52;84.96;100532.38;5123284;28;20530;-67
2020/12/25 02:24:08;;;;;;;11.63;8.90;;;;;;;1.56;84.83;100533.06;5124082;28;20474;-67
2020/12/25 02:26:34;;;;;;;10.70;7.97;;;;;;;1.62;85.33;100546.78;5124217;28;20530;-68
2020/12/25 02:29:01;;;;;;;12.70;8.90;;;;;;;1.53;84.93;100546.38;5124311;28;20476;-67
2020/12/25 02:31:27;;;;;;;12.30;9.53;;;;;;;1.50;84.76;100542.13;5104762;28;20486;-68
2020/12/25 02:33:53;;;;;;;11.73;8.30;;;;;;;1.39;85.04;100553.19;5109640;28;20720;-67
2020/12/25 02:36:19;;;;;;;13.20;8.37;;;;;;;1.41;84.61;100551.34;5123426;28;20512;-67
2020/12/25 02:38:46;;;;;;;14.97;8.70;;;;;;;1.38;85.12;100554.13;5124597;28;20490;-68
2020/12/25 02:41:12;;;;;;;8.87;7.73;;;;;;;1.33;84.79;100557.91;5122721;28;20470;-68
2020/12/25 02:43:38;;;;;;;10.80;8.10;;;;;;;1.23;84.76;100558.38;5124337;28;20442;-68
2020/12/25 02:46:05;;;;;;;10.50;9.20;;;;;;;1.20;85.40;100571.66;5123517;28;20466;-68
2020/12/25 02:48:31;;;;;;;14.27;8.77;;;;;;;1.23;85.42;100565.38;5122641;28;20473;-68
2020/12/25 02:50:57;;;;;;;11.73;9.30;;;;;;;1.22;84.54;100564.53;5102442;28;20536;-68
2020/12/25 02:53:23;;;;;;;12.40;9.83;;;;;;;1.18;84.39;100577.91;5119449;28;20743;-68
2020/12/25 02:55:50;;;;;;;12.20;8.87;;;;;;;1.17;84.44;100582.34;5123286;27;20474;-68
2020/12/25 02:58:16;;;;;;;9.57;8.40;;;;;;;1.07;84.36;100581.06;5124170;28;20441;-68
2020/12/25 03:00:42;;;;;;;11.40;9.20;;;;;;;1.25;84.44;100574.06;5123240;28;20493;-67
2020/12/25 03:03:08;;;;;;;11.27;8.77;;;;;;;1.24;84.57;100588.19;5124290;28;20457;-68
2020/12/25 03:05:35;;;;;;;14.13;9.60;;;;;;;1.20;84.13;100592.75;5103540;28;21028;-68
2020/12/25 03:08:01;;;;;;;14.10;10.37;;;;;;;1.01;83.85;100587.47;5119391;28;20458;-67
2020/12/25 03:10:27;;;;;;;15.93;11.40;;;;;;;1.16;83.50;100591.16;5122901;28;20474;-67
2020/12/25 03:12:54;;;;;;;15.20;11.43;;;;;;;1.17;83.30;100584.13;5123825;28;20469;-67
2020/12/25 03:15:21;;;;;;;13.40;11.20;;;;;;;1.20;83.21;100583.97;5122225;28;20438;-68
2020/12/25 03:17:47;;;;;;;13.97;11.87;;;;;;;1.11;83.60;100588.75;5125021;28;20430;-68
2020/12/25 03:20:13;;;;;;;16.30;12.10;;;;;;;1.05;83.25;100590.81;5122415;28;20798;-68
2020/12/25 03:22:39;;;;;;;16.80;11.70;;;;;;;0.94;83.72;100597.44;5124890;28;20454;-67
2020/12/25 03:25:05;;;;;;;17.30;12.50;;;;;;;1.01;83.47;100607.66;5121832;28;20443;-68
2020/12/25 03:27:31;;;;;;;25.50;12.47;;;;;;;1.13;83.57;100593.97;5124943;28;20465;-67
2020/12/25 03:29:58;;;;;;;15.03;12.30;;;;;;;1.20;83.33;100598.00;5123543;28;20457;-68
2020/12/25 03:32:25;;;;;;;17.20;13.10;;;;;;;1.18;83.66;100606.88;5123783;28;20481;-68
2020/12/25 03:34:51;;;;;;;16.70;11.43;;;;;;;1.16;83.23;100609.59;5115211;28;20992;-67
2020/12/25 03:37:18;;;;;;;14.40;11.27;;;;;;;1.02;82.98;100604.13;5123482;28;20513;-67
2020/12/25 03:39:46;;;;;;;12.80;10.63;;;;;;;1.01;83.33;100603.28;5123387;28;20462;-67
2020/12/25 03:42:12;;;;;;;13.47;9.63;;;;;;;1.06;83.01;100603.91;5126568;28;20470;-68
2020/12/25 03:44:38;;;;;;;10.87;9.70;;;;;;;0.94;82.41;100612.38;5127051;28;20449;-68
2020/12/25 03:47:05;;;;;;;15.17;11.70;;;;;;;0.98;83.10;100626.25;5127566;28;20518;-67
2020/12/25 03:49:32;;;;;;;16.57;11.63;;;;;;;1.01;83.65;100632.25;5117730;28;20499;-67
2020/12/25 03:51:58;;;;;;;14.43;10.60;;;;;;;1.19;83.32;100633.16;5106124;28;20471;-67
2020/12/25 03:54:24;;;;;;;16.30;11.87;;;;;;;1.12;82.78;100640.47;5125889;28;20481;-68
2020/12/25 03:56:50;;;;;;;14.47;11.23;;;;;;;1.33;82.64;100632.50;5126432;28;20500;-67
2020/12/25 03:59:16;;;;;;;19.63;11.40;;;;;;;1.27;82.19;100633.66;5127856;28;20458;-68
2020/12/25 04:01:42;;;;;;;12.97;10.50;;;;;;;1.22;83.31;100642.72;5126202;28;20465;-67
2020/12/25 04:04:09;;;;;;;16.57;10.03;;;;;;;1.24;83.38;100651.38;5128481;28;20450;-68
2020/12/25 04:06:35;;;;;;;16.20;11.83;;;;;;;1.27;83.38;100643.34;5125880;28;20478;-68
2020/12/25 04:09:01;;;;;;;16.80;12.03;;;;;;;1.16;82.67;100649.09;5126606;28;20465;-68
2020/12/25 04:11:28;;;;;;;15.67;11.27;;;;;;;1.14;82.35;100658.84;5126754;28;20466;-67
2020/12/25 04:13:54;;;;;;;14.10;10.87;;;;;;;1.23;82.14;100650.53;5127052;28;20790;-67
2020/12/25 04:16:21;;;;;;;15.30;10.90;;;;;;;1.16;82.59;100654.34;5125743;28;20506;-67
2020/12/25 04:18:47;;;;;;;14.50;10.10;;;;;;;1.21;82.54;100660.28;5128174;28;20580;-67
2020/12/25 04:21:14;;;;;;;19.97;10.90;;;;;;;1.04;83.24;100658.44;5125605;28;20476;-68
2020/12/25 04:23:40;;;;;;;16.23;11.90;;;;;;;0.97;83.71;100656.97;5126969;28;20453;-68
2020/12/25 04:26:09;;;;;;;16.30;10.80;;;;;;;0.99;83.81;100656.91;5125593;28;20473;-67
2020/12/25 04:28:35;;;;;;;17.33;10.83;;;;;;;0.97;83.58;100659.59;5127242;28;20454;-68
2020/12/25 04:31:02;;;;;;;18.13;10.37;;;;;;;1.06;84.49;100660.97;5110475;28;20493;-68
2020/12/25 04:33:28;;;;;;;14.03;10.23;;;;;;;1.16;83.06;100661.41;5108816;28;20427;-67
2020/12/25 04:35:54;;;;;;;12.80;8.90;;;;;;;1.16;83.47;100661.41;5124800;28;20502;-67
2020/12/25 04:38:21;;;;;;;13.60;8.50;;;;;;;1.25;82.81;100671.50;5127227;28;20519;-68
2020/12/25 04:40:47;;;;;;;17.83;9.50;;;;;;;1.29;82.70;100681.00;5125694;28;20894;-67
2020/12/25 04:43:14;;;;;;;9.73;7.70;;;;;;;1.12;82.94;100682.63;5126789;28;20450;-67
2020/12/25 04:45:41;;;;;;;10.97;7.70;;;;;;;0.94;82.76;100673.78;5125301;28;20490;-68
2020/12/25 04:48:07;;;;;;;11.60;7.77;;;;;;;0.76;83.27;100687.75;5127413;28;20884;-67
2020/12/25 04:50:33;;;;;;;8.10;6.97;;;;;;;0.64;83.35;100707.53;5106314;28;20493;-67
2020/12/25 04:53:00;;;;;;;8.40;6.60;;;;;;;0.79;83.51;100694.66;5118514;28;20519;-67
2020/12/25 04:55:27;;;;;;;12.43;6.50;;;;;;;0.73;83.55;100686.13;5124608;28;20478;-68
2020/12/25 04:57:54;;;;;;;9.13;6.10;;;;;;;0.62;83.73;100701.50;5126719;28;20438;-67
2020/12/25 05:00:21;;;;;;;9.70;6.17;;;;;;;0.74;83.46;100702.75;5114061;28;20474;-67
2020/12/25 05:02:48;;;;;;;10.10;5.43;;;;;;;0.85;83.57;100707.53;5126956;28;20457;-67
2020/12/25 05:05:16;;;;;;;8.33;5.43;;;;;;;0.86;83.50;100715.38;5124547;28;20446;-68
2020/12/25 05:07:42;;;;;;;10.90;5.93;;;;;;;1.02;82.92;100720.81;5126444;28;20431;-67
2020/12/25 05:10:08;;;;;;;7.40;5.83;;;;;;;1.03;83.35;100716.44;5124401;28;20489;-68
2020/12/25 05:12:36;;;;;;;5.63;4.70;;;;;;;1.12;82.97;100713.38;5126403;28;20446;-68
2020/12/25 05:15:05;;;;;;;8.20;5.80;;;;;;;1.11;82.78;100714.28;5126650;28;20474;-67
2020/12/25 05:17:32;;;;;;;10.37;5.47;;;;;;;1.19;82.40;100716.59;5124790;28;20519;-67
2020/12/25 05:19:58;;;;;;;9.50;5.90;;;;;;;1.21;82.55;100714.72;5126379;28;20449;-67
2020/12/25 05:22:25;;;;;;;9.07;5.90;;;;;;;1.18;82.58;100720.13;5124970;28;20505;-67
2020/12/25 05:24:51;;;;;;;6.37;5.03;;;;;;;1.19;82.60;100725.34;5125261;28;20454;-67
2020/12/25 05:27:17;;;;;;;7.50;5.60;;;;;;;1.13;82.94;100723.84;5125144;28;20493;-67
2020/12/25 05:29:44;;;;;;;8.67;5.33;;;;;;;1.12;83.14;100722.13;5125291;28;20461;-67
2020/12/25 05:32:10;;;;;;;7.60;5.87;;;;;;;1.25;83.20;100729.47;5124424;28;20466;-67
2020/12/25 05:34:37;;;;;;;7.83;5.10;;;;;;;1.42;83.03;100726.91;5114841;28;20467;-68
2020/12/25 05:37:04;;;;;;;9.90;5.07;;;;;;;1.48;82.71;100734.56;5104593;28;20478;-68
2020/12/25 05:39:31;;;;;;;5.30;4.50;;;;;;;1.43;82.70;100735.69;5122558;28;20503;-68
2020/12/25 05:41:59;;;;;;;6.60;4.87;;;;;;;1.44;82.46;100746.16;5125360;28;20958;-67
2020/12/25 05:44:26;;;;;;;7.13;5.13;;;;;;;1.52;82.83;100745.81;5125310;28;20469;-68
2020/12/25 05:46:53;;;;;;;8.13;5.10;;;;;;;1.59;82.10;100744.59;5124815;28;20477;-67
2020/12/25 05:49:19;;;;;;;15.40;5.37;;;;;;;1.47;82.48;100747.78;5125496;28;20466;-68
2020/12/25 05:51:47;;;;;;;9.70;5.47;;;;;;;1.63;82.52;100754.09;5123664;28;20501;-67
2020/12/25 05:54:19;;;;;;;8.73;4.37;;;;;;;1.45;83.40;100755.75;5124574;28;20446;-68
2020/12/25 05:56:50;;;;;;;10.03;5.17;;;;;;;1.42;84.56;100755.06;5123028;28;20482;-68
2020/12/25 05:59:23;;;;;;;6.43;4.43;;;;;;;1.65;83.02;100757.50;5125340;28;20453;-67
2020/12/25 06:01:49;;;;;;;6.23;4.80;;;;;;;1.46;83.56;100761.91;5123807;28;20502;-68
2020/12/25 06:04:16;;;;;;;13.00;5.60;;;;;;;1.40;83.64;100768.28;5116954;28;20447;-68
2020/12/25 06:06:43;;;;;;;9.80;6.57;;;;;;;1.54;82.82;100777.34;5119898;28;20497;-67
2020/12/25 06:09:16;;;;;;;9.70;5.20;;;;;;;1.56;83.08;100793.94;5124644;28;20570;-68
2020/12/25 06:11:46;;;;;;;9.23;6.13;;;;;;;1.41;82.62;100790.25;5123193;28;21052;-68
2020/12/25 06:14:12;;;;;;;11.90;6.00;;;;;;;1.42;82.94;100795.41;5124129;28;20457;-68
2020/12/25 06:16:40;;;;;;;10.40;5.70;;;;;;;1.28;82.95;100795.19;5103682;28;20478;-67
2020/12/25 06:19:11;;;;;;;12.27;5.90;;;;;;;1.22;83.45;100803.38;5111802;28;20435;-67
2020/12/25 06:21:50;;;;;;;13.50;6.13;;;;;;;1.24;83.57;100797.09;5123552;28;20517;-67
2020/12/25 06:24:18;;;;;;;10.70;5.80;;;;;;;1.27;84.01;100789.06;5124449;28;20445;-67
2020/12/25 06:26:45;;;;;;;11.40;6.50;;;;;;;1.35;83.74;100788.72;5122901;28;20470;-67
2020/12/25 06:29:15;;;;;;;8.03;5.40;;;;;;;1.50;83.72;100785.41;5124955;28;20457;-67
2020/12/25 06:31:42;;;;;;;8.97;5.57;;;;;;;1.49;83.96;100786.34;5121058;28;20924;-68
2020/12/25 06:34:09;;;;;;;8.13;4.30;;;;;;;1.38;84.17;100798.28;5125634;28;20434;-68
2020/12/25 06:36:35;;;;;;;9.17;3.87;;;;;;;1.39;82.70;100799.97;5120421;28;20470;-68
2020/12/25 06:39:06;;;;;;;7.13;3.60;;;;;;;1.33;82.89;100795.84;5121680;28;20450;-68
2020/12/25 06:41:34;;;;;;;6.27;3.80;;;;;;;1.34;83.26;100813.38;5120766;28;20477;-68
2020/12/25 06:44:00;;;;;;;7.80;3.07;;;;;;;1.24;83.21;100817.31;5121910;28;20460;-67
2020/12/25 06:46:28;;;;;;;10.60;3.47;;;;;;;1.22;83.92;100817.38;5118097;28;20474;-68
2020/12/25 06:48:54;;;;;;;6.97;3.30;;;;;;;1.23;83.67;100815.59;5121554;28;20449;-67
2020/12/25 06:51:22;;;;;;;2.83;1.83;;;;;;;1.23;83.57;100819.13;5120281;28;20996;-68
2020/12/25 06:53:48;;;;;;;4.50;2.10;;;;;;;1.08;83.30;100822.41;5121712;28;20447;-67
2020/12/25 06:56:16;;;;;;;6.40;2.40;;;;;;;0.98;84.09;100828.97;5120306;28;20508;-68
2020/12/25 06:58:45;;;;;;;4.33;2.00;;;;;;;0.87;84.21;100822.41;5121295;28;20482;-68
2020/12/25 07:01:12;;;;;;;6.90;1.97;;;;;;;0.70;84.70;100832.75;5119273;28;20466;-68
2020/12/25 07:03:39;;;;;;;6.33;2.80;;;;;;;0.33;85.93;100827.22;5122407;28;20482;-68
2020/12/25 07:06:06;;;;;;;6.30;2.40;;;;;;;0.13;86.72;100828.00;5120040;28;20484;-68
2020/12/25 07:08:33;;;;;;;13.13;2.67;;;;;;;0.04;87.28;100823.09;5120295;28;20956;-68
2020/12/25 07:11:04;;;;;;;6.60;2.20;;;;;;;0.01;87.48;100835.50;5109541;28;20513;-68
2020/12/25 07:13:32;;;;;;;5.87;2.40;;;;;;;-0.17;88.22;100835.28;5107526;28;20547;-67
2020/12/25 07:15:59;;;;;;;2.63;2.00;;;;;;;-0.28;88.75;100834.81;5116192;28;20490;-68
2020/12/25 07:18:25;;;;;;;5.00;2.37;;;;;;;-0.21;88.45;100836.31;5112485;28;20450;-68
2020/12/25 07:20:51;;;;;;;5.27;2.13;;;;;;;-0.25;88.42;100830.31;5104410;28;20474;-68
2020/12/25 07:23:18;;;;;;;10.53;2.23;;;;;;;-0.28;88.38;100845.34;5109256;28;20462;-68
2020/12/25 07:25:45;;;;;;;3.87;2.27;;;;;;;-0.41;88.93;100843.16;5103254;28;20467;-67
2020/12/25 07:28:11;;;;;;;3.47;1.67;;;;;;;-0.51;89.37;100848.81;5112111;28;20430;-67
2020/12/25 07:30:38;;;;;;;5.77;1.97;;;;;;;-0.54;89.58;100854.16;5115778;28;20467;-67
2020/12/25 07:33:05;;;;;;;9.17;2.23;;;;;;;-0.63;89.64;100860.59;5107892;28;20845;-67
2020/12/25 07:35:31;;;;;;;4.87;2.30;;;;;;;-0.72;89.92;100856.53;5106615;28;20469;-67
2020/12/25 07:37:57;;;;;;;8.10;2.23;;;;;;;-0.67;90.27;100859.84;5109526;28;20478;-67
2020/12/25 07:40:24;;;;;;;7.33;2.50;;;;;;;-0.64;89.98;100866.78;5106372;28;22033;-68
2020/12/25 07:42:50;;;;;;;10.83;2.60;;;;;;;-0.62;89.97;100870.22;5115054;28;20437;-68
2020/12/25 07:45:16;;;;;;;6.93;2.77;;;;;;;-0.56;89.73;100867.34;5110999;28;20451;-67
2020/12/25 07:47:43;;;;;;;9.33;2.90;;;;;;;-0.61;90.16;100874.53;5108016;28;20891;-67
2020/12/25 07:50:10;;;;;;;8.03;3.10;;;;;;;0.69;95.05;100884.53;5107049;28;20467;-67
2020/12/25 07:52:36;;;;;;;6.67;3.30;;;;;;;1.32;93.48;100896.88;5101179;28;20446;-67
2020/12/25 07:55:02;;;;;;;7.63;3.10;;;;;;;0.86;88.88;100896.16;5106663;28;20477;-67
2020/12/25 07:57:29;;;;;;;5.00;2.73;;;;;;;0.91;88.20;100900.31;5106093;28;20706;-67
2020/12/25 07:59:55;;;;;;;10.27;4.70;;;;;;;0.72;86.39;100900.19;5106757;28;20950;-67
2020/12/25 08:02:21;;;;;;;7.83;3.30;;;;;;;0.73;85.99;100887.91;5105939;28;20462;-67
2020/12/25 08:04:49;;;;;;;9.07;3.40;;;;;;;0.52;86.04;100884.34;5108120;28;20472;-67
2020/12/25 08:07:15;;;;;;;8.20;2.70;;;;;;;0.61;85.77;100886.63;5115872;28;20574;-67
2020/12/25 08:09:42;;;;;;;8.13;3.60;;;;;;;0.72;84.76;100889.66;5118709;28;20465;-67
2020/12/25 08:12:10;;;;;;;5.80;2.30;;;;;;;1.05;83.43;100886.56;5105788;28;20485;-67
2020/12/25 08:14:38;;;;;;;4.93;2.20;;;;;;;1.48;81.77;100887.38;5123169;28;20446;-67
2020/12/25 08:17:05;;;;;;;6.50;3.30;;;;;;;1.70;81.41;100881.16;5113688;28;20520;-66
2020/12/25 08:19:33;;;;;;;9.33;2.70;;;;;;;2.10;80.23;100894.31;5126396;28;20445;-69
2020/12/25 08:22:04;;;;;;;7.50;2.77;;;;;;;2.19;79.41;100900.03;5112440;28;20482;-66
2020/12/25 08:24:30;;;;;;;7.40;3.17;;;;;;;2.28;79.24;100898.75;5115370;28;20478;-66
2020/12/25 08:27:00;;;;;;;9.70;3.63;;;;;;;2.11;79.46;100907.44;5109369;28;20531;-66
2020/12/25 08:29:26;;;;;;;8.80;2.30;;;;;;;2.00;79.54;100915.84;5113185;28;20447;-66
2020/12/25 08:31:52;;;;;;;6.20;2.37;;;;;;;1.98;79.07;100914.19;5109658;28;21039;-66
2020/12/25 08:34:25;;;;;;;8.40;2.90;;;;;;;1.78;79.24;100908.03;5126041;28;20446;-66
2020/12/25 08:36:58;;;;;;;4.70;1.70;;;;;;;1.48;79.85;100908.47;5113167;28;20494;-66
2020/12/25 08:39:30;;;;;;;6.37;2.40;;;;;;;1.46;80.51;100905.03;5111592;28;21014;-67
2020/12/25 08:41:56;;;;;;;4.43;2.23;;;;;;;1.28;80.89;100901.41;5104206;28;20549;-66
2020/12/25 08:44:23;;;;;;;10.97;3.03;;;;;;;1.35;81.12;100912.53;5106450;28;20436;-66
2020/12/25 08:46:49;;;;;;;6.10;2.67;;;;;;;1.42;81.23;100916.63;5111963;28;21061;-66
2020/12/25 08:49:26;;;;;;;5.00;1.70;;;;;;;1.49;80.72;100922.47;5105774;28;20458;-66
2020/12/25 08:51:52;;;;;;;13.23;2.73;;;;;;;1.41;81.18;100920.19;5116514;28;20473;-66
2020/12/25 08:54:24;;;;;;;15.53;2.80;;;;;;;1.49;81.30;100919.84;5120704;28;20541;-67
2020/12/25 08:56:51;;;;;;;5.77;1.90;;;;;;;1.66;80.35;100921.75;5123890;28;20508;-69
2020/12/25 08:59:20;;;;;;;6.20;1.70;;;;;;;1.71;79.70;100922.41;5106841;28;20455;-67
2020/12/25 09:01:47;;;;;;;6.20;2.00;;;;;;;1.52;81.16;100924.16;5116268;28;20498;-67
2020/12/25 09:04:14;;;;;;;5.50;2.53;;;;;;;1.76;80.74;100932.78;5105723;28;20511;-67
2020/12/25 09:06:40;;;;;;;3.83;1.70;;;;;;;1.78;80.29;100936.19;5112951;28;20454;-67
2020/12/25 09:09:06;;;;;;;5.67;2.20;;;;;;;2.13;79.49;100923.19;5116817;28;20485;-67
2020/12/25 09:11:32;;;;;;;5.47;2.57;;;;;;;2.24;79.21;100934.97;5124623;28;20470;-67
2020/12/25 09:13:59;;;;;;;6.00;2.10;;;;;;;2.27;78.97;100931.31;5117251;28;20438;-67
2020/12/25 09:16:26;;;;;;;3.30;1.80;;;;;;;2.38;78.00;100931.69;5111514;28;20524;-68
2020/12/25 09:18:52;;;;;;;7.83;1.87;;;;;;;2.52;77.99;100931.06;5108745;28;20435;-67
2020/12/25 09:21:18;;;;;;;6.20;2.13;;;;;;;2.97;76.63;100939.50;5106349;28;20478;-67
2020/12/25 09:23:45;;;;;;;3.70;1.93;;;;;;;3.20;74.18;100947.13;5113164;28;20434;-67
2020/12/25 09:26:12;;;;;;;6.50;2.57;;;;;;;3.14;75.56;100950.09;5122787;28;20477;-68
2020/12/25 09:28:39;;;;;;;8.83;2.17;;;;;;;2.82;76.90;100951.66;5104871;28;20528;-67
2020/12/25 09:31:07;;;;;;;7.40;2.20;;;;;;;2.75;75.95;100961.63;5107725;28;20752;-67
2020/12/25 09:33:33;;;;;;;4.40;1.80;;;;;;;2.76;76.16;100954.56;5123040;28;20441;-68
2020/12/25 09:36:02;;;;;;;6.17;2.30;;;;;;;2.88;75.98;100963.69;5108961;28;20632;-67
2020/12/25 09:38:29;;;;;;;6.43;2.00;;;;;;;3.65;73.42;100967.84;5124554;28;20447;-67
2020/12/25 09:40:55;;;;;;;5.57;2.20;;;;;;;3.87;72.30;100965.78;5120409;28;20497;-67
2020/12/25 09:43:21;;;;;;;5.97;1.80;;;;;;;3.54;73.20;100961.31;5124064;28;20455;-68
2020/12/25 09:45:47;;;;;;;4.10;1.97;;;;;;;3.50;72.87;100961.53;5114862;28;20474;-67
2020/12/25 09:48:14;;;;;;;3.70;1.80;;;;;;;3.42;73.98;100966.34;5107946;28;20561;-67
2020/12/25 09:50:42;;;;;;;4.13;1.90;;;;;;;5.29;68.39;100958.00;5102157;28;20488;-67
2020/12/25 09:53:09;;;;;;;5.10;1.80;;;;;;;6.25;63.36;100962.94;5104319;28;20427;-68
2020/12/25 09:55:37;;;;;;;4.53;2.10;;;;;;;7.12;62.07;100954.69;5120430;28;20497;-68
2020/12/25 09:58:03;;;;;;;4.30;2.00;;;;;;;7.87;58.47;100954.09;5122119;28;20475;-67
2020/12/25 10:00:30;;;;;;;2.50;1.60;;;;;;;8.22;55.48;100952.59;5112346;28;20474;-68
2020/12/25 10:02:56;;;;;;;3.10;1.80;;;;;;;7.03;58.38;100952.66;5108653;28;21375;-68
2020/12/25 10:05:23;;;;;;;2.80;1.63;;;;;;;6.41;61.18;100945.09;5099662;28;20439;-67
2020/12/25 10:07:52;;;;;;;2.33;1.53;;;;;;;5.80;62.72;100955.88;5103893;28;20813;-68
2020/12/25 10:10:19;;;;;;;5.97;2.07;;;;;;;5.70;64.38;100956.53;5114501;28;20482;-67
2020/12/25 10:12:46;;;;;;;5.80;1.40;;;;;;;5.17;65.20;100959.56;5122415;28;20434;-67
2020/12/25 10:15:13;;;;;;;5.40;1.70;;;;;;;5.04;65.87;100956.75;5123007;28;20476;-70
2020/12/25 10:17:39;;;;;;;7.53;1.67;;;;;;;4.77;66.85;100956.53;5117720;27;20571;-68
2020/12/25 10:20:05;;;;;;;4.73;1.73;;;;;;;4.53;68.06;100956.97;5119853;27;20457;-69
2020/12/25 10:22:33;;;;;;;4.53;1.50;;;;;;;4.41;69.19;100964.69;5122734;28;20437;-69
2020/12/25 10:24:59;;;;;;;7.70;2.03;;;;;;;4.35;68.92;100973.84;5122289;28;20446;-69
2020/12/25 10:27:25;;;;;;;4.30;2.13;;;;;;;4.25;70.68;100972.63;5119162;28;20478;-70
2020/12/25 10:29:52;;;;;;;4.50;1.80;;;;;;;4.29;69.84;100975.03;5121929;28;20545;-70
2020/12/25 10:32:19;;;;;;;2.53;1.50;;;;;;;4.24;69.78;100969.13;5119280;27;20478;-69
2020/12/25 10:34:45;;;;;;;9.07;1.63;;;;;;;4.20;70.10;100964.94;5122086;28;20457;-70
2020/12/25 10:37:11;;;;;;;6.50;2.07;;;;;;;4.14;70.58;100962.63;5119010;28;20523;-67
2020/12/25 10:39:39;;;;;;;10.13;1.77;;;;;;;4.17;70.78;100961.59;5120988;28;20435;-67
2020/12/25 10:42:09;;;;;;;5.87;2.53;;;;;;;4.19;71.05;100962.38;5120324;27;20956;-67
2020/12/25 10:44:35;;;;;;;3.37;1.50;;;;;;;4.34;70.34;100959.75;5122760;27;20446;-68
2020/12/25 10:47:02;;;;;;;5.43;1.83;;;;;;;4.23;71.21;100954.19;5121811;27;20477;-67
2020/12/25 10:49:28;;;;;;;8.70;2.07;;;;;;;4.20;70.90;100958.78;5122267;28;20442;-67
2020/12/25 10:51:55;;;;;;;4.73;1.67;;;;;;;4.64;69.66;100955.53;5121137;28;20473;-68
2020/12/25 10:54:21;;;;;;;4.03;2.00;;;;;;;5.90;65.91;100956.16;5122801;28;20450;-70
2020/12/25 10:56:49;;;;;;;3.40;1.90;;;;;;;7.78;59.06;100951.19;5118671;27;20474;-68
2020/12/25 10:59:15;;;;;;;5.97;1.87;;;;;;;8.82;55.85;100956.34;5122074;28;21014;-68
2020/12/25 11:01:46;;;;;;;6.73;2.07;;;;;;;9.14;54.58;100950.44;5121366;28;20477;-68
2020/12/25 11:04:13;;;;;;;7.37;1.80;;;;;;;10.19;51.46;100956.69;5121018;28;20476;-68
2020/12/25 11:06:39;;;;;;;3.53;1.73;;;;;;;9.77;52.36;100959.91;5119479;27;20490;-68
2020/12/25 11:09:08;;;;;;;7.50;1.77;;;;;;;9.17;53.55;100961.75;5121471;28;20443;-70
2020/12/25 11:11:35;;;;;;;4.37;1.73;;;;;;;9.92;52.20;100967.69;5120980;28;20489;-69
2020/12/25 11:14:03;;;;;;;3.83;1.60;;;;;;;9.86;51.60;100961.00;5121031;28;20472;-68
2020/12/25 11:16:31;;;;;;;4.27;1.40;;;;;;;9.51;53.50;100964.56;5121178;28;20470;-69
2020/12/25 11:18:59;;;;;;;3.70;1.43;;;;;;;10.10;51.67;100962.72;5122857;28;20443;-68
2020/12/25 11:21:26;;;;;;;3.97;1.47;;;;;;;9.60;52.68;100947.00;5121178;28;20473;-68
2020/12/25 11:23:53;;;;;;;3.47;1.50;;;;;;;9.61;52.95;100952.19;5121883;28;20822;-68
2020/12/25 11:26:21;;;;;;;4.20;1.43;;;;;;;9.59;51.91;100947.94;5116889;28;20492;-71
2020/12/25 11:28:48;;;;;;;3.27;1.30;;;;;;;8.99;53.12;100939.09;5122221;28;20450;-69